Aeroporto :
LOGIN :

Iscrizione | Disclaimer

   EN    FR    IT 

 










Sommario :    VFR   VFR Marginale   IFR   IFR Intensivo   IFR Molto Intensivo
Visibilità : 
Base nubi : 
>= 8 km
>= 3000ft
5 / 8 km
1000 / 3000 ft
1500m / 5 km
500 / 1000 ft
800 / 1500m
200 / 500 ft
< 800m
< 200 ft
Simboli :   Temporali  Nebbia  Neve Forte  Precipitazioni Forti  Vento > 20 kt
SIGMETs :   Varie  Temporali  Ghiacco  Turbolenza  Onda orograficha  Ceneri Vulcaniche






- Altitudine del aeroporto : 600 ft
- Codice IATA : VIE


LOWW - Vienna Schwechat

ULTIMO METAR :
  • 142020Z 25004KT 230V290 CAVOK 06/00 Q1006 NOSIG

METARs OBSOLETI :
  • 141950Z 30008KT 250V330 CAVOK 08/01 Q1006 BECMG 21005KT
  • 141920Z 29012KT CAVOK 08/01 Q1006 BECMG FM2000 23010KT
  • 141850Z 29011KT 9999 FEW050 08/02 Q1005 BECMG FM2000 24010KT
  • 141820Z 31016G26KT 9999 FEW030 SCT050 08/02 Q1004 BECMG 25010KT
  • 141750Z 28021G33KT 9999 FEW030 SCT050 09/02 Q1003 WS R34 BECMG 25010KT

TAF AMD TAF LOWW
Valido dal 14 a 19 ore il 16 a 00 ore UTC


141904Z 1419/1524 28015KT 9999 FEW030 TX09/1513Z TN02/1524Z
BECMG 1419/1421 18005KT CAVOK



MetMap, La meteo Aeronautica in un colpo d'occhio ! - Copyright ORBIFLY Dicembre 2007 - Disclaimer

ORBIFLY MET'MAP TEAM :

Programmazione e sviluppo : Alexandra Zaïnal
Concezione : Baudouin d'Aumeries
Aiuto per la programmazione : Marc-Olivier Méhu
Supporto tecnico e logistico : Manuel Goepfert
Aiuto per la traduzione : Arnaldo La Scala

Contatto : metmap@orbifly.com




FONTI E CREDITI :

   NOAA